createdAt,value
2023-04-22T00:01:24.613Z,10.52
2023-04-22T00:03:55.438Z,10.49
2023-04-22T00:06:24.275Z,10.50
2023-04-22T00:08:53.213Z,10.50
2023-04-22T00:11:23.297Z,10.53
2023-04-22T00:13:52.212Z,10.51
2023-04-22T00:16:21.581Z,10.54
2023-04-22T00:18:50.576Z,10.57
2023-04-22T00:21:19.325Z,10.57
2023-04-22T00:23:48.261Z,10.55
2023-04-22T00:26:16.988Z,10.54
2023-04-22T00:28:47.258Z,10.56
2023-04-22T00:31:15.980Z,10.53
2023-04-22T00:33:45.430Z,10.52
2023-04-22T00:36:14.111Z,10.51
2023-04-22T00:38:50.471Z,10.52
2023-04-22T00:41:20.182Z,10.52
2023-04-22T00:43:52.484Z,10.51
2023-04-22T00:46:21.998Z,10.52
2023-04-22T00:48:51.846Z,10.52
2023-04-22T00:51:20.521Z,10.54
2023-04-22T00:53:49.568Z,10.50
2023-04-22T00:56:19.025Z,10.47
2023-04-22T00:58:48.116Z,10.50
2023-04-22T01:01:18.771Z,10.47
2023-04-22T01:03:52.778Z,10.50
2023-04-22T01:06:23.376Z,10.50
2023-04-22T01:08:52.637Z,10.53
2023-04-22T01:11:21.706Z,10.52
2023-04-22T01:13:50.905Z,10.48
2023-04-22T01:16:21.460Z,10.46
2023-04-22T01:18:51.035Z,10.41
2023-04-22T01:21:20.300Z,10.35
2023-04-22T01:23:51.121Z,10.28
2023-04-22T01:26:19.881Z,10.24
2023-04-22T01:28:49.386Z,10.20
2023-04-22T01:31:18.451Z,10.12
2023-04-22T01:33:48.451Z,10.05
2023-04-22T01:36:17.891Z,9.99
2023-04-22T01:38:47.248Z,9.90
2023-04-22T01:41:17.886Z,9.84
2023-04-22T01:43:47.690Z,9.83
2023-04-22T01:46:18.696Z,9.81
2023-04-22T01:48:51.475Z,9.76
2023-04-22T01:51:21.463Z,9.69
2023-04-22T01:53:51.024Z,9.67
2023-04-22T01:56:21.474Z,9.58
2023-04-22T01:58:51.478Z,9.52
2023-04-22T02:01:20.312Z,9.47
2023-04-22T02:03:49.368Z,9.39
2023-04-22T02:06:18.151Z,9.31
2023-04-22T02:08:47.159Z,9.31
2023-04-22T02:11:16.850Z,9.30
2023-04-22T02:13:47.193Z,9.20
2023-04-22T02:16:16.056Z,9.14
2023-04-22T02:18:45.089Z,9.06
2023-04-22T02:21:13.762Z,9.05
2023-04-22T02:23:43.334Z,8.99
2023-04-22T02:26:12.046Z,8.98
2023-04-22T02:28:41.627Z,8.94
2023-04-22T02:31:11.890Z,8.92
2023-04-22T02:33:42.855Z,8.90
2023-04-22T02:36:12.191Z,8.86
2023-04-22T02:38:41.169Z,8.82
2023-04-22T02:41:09.803Z,8.74
2023-04-22T02:43:41.670Z,8.67
2023-04-22T02:46:16.126Z,8.64
2023-04-22T02:48:45.253Z,8.56
2023-04-22T02:51:13.988Z,8.54
2023-04-22T02:53:43.130Z,8.54
2023-04-22T02:56:12.253Z,8.50
2023-04-22T02:58:41.287Z,8.45
2023-04-22T03:01:10.131Z,8.40
2023-04-22T03:03:41.299Z,8.42
2023-04-22T03:06:13.098Z,8.40
2023-04-22T03:08:42.097Z,8.37
2023-04-22T03:11:10.836Z,8.35
2023-04-22T03:13:39.750Z,8.29
2023-04-22T03:16:09.405Z,8.21
2023-04-22T03:18:41.495Z,8.16
2023-04-22T03:21:12.551Z,8.17
2023-04-22T03:23:42.844Z,8.17
2023-04-22T03:26:12.101Z,8.14
2023-04-22T03:28:42.137Z,8.17
2023-04-22T03:31:10.993Z,8.13
2023-04-22T03:33:41.571Z,8.16
2023-04-22T03:36:21.425Z,8.16
2023-04-22T03:38:51.085Z,8.09
2023-04-22T03:41:20.299Z,8.12
2023-04-22T03:43:50.883Z,8.12
2023-04-22T03:46:20.057Z,8.11
2023-04-22T03:48:59.947Z,8.04
2023-04-22T03:51:31.434Z,8.02
2023-04-22T03:54:03.385Z,8.03
2023-04-22T03:56:35.401Z,8.00
2023-04-22T03:59:04.313Z,8.02
2023-04-22T04:01:34.551Z,8.01
2023-04-22T04:04:08.172Z,7.99
2023-04-22T04:06:43.143Z,8.00
2023-04-22T04:09:12.138Z,8.05
2023-04-22T04:11:40.866Z,8.09
2023-04-22T04:14:11.706Z,8.13
2023-04-22T04:16:51.401Z,8.12
2023-04-22T04:19:30.475Z,8.13
2023-04-22T04:21:59.218Z,8.19
2023-04-22T04:24:30.388Z,8.24
2023-04-22T04:27:06.482Z,8.24
2023-04-22T04:29:43.330Z,8.28
2023-04-22T04:32:18.321Z,8.31
2023-04-22T04:34:49.113Z,8.36
2023-04-22T04:37:19.610Z,8.44
2023-04-22T04:40:00.425Z,8.51
2023-04-22T04:42:39.116Z,8.59
2023-04-22T04:45:13.729Z,8.65
2023-04-22T04:47:42.381Z,8.69
2023-04-22T04:50:23.662Z,8.77
2023-04-22T04:52:53.018Z,8.85
2023-04-22T04:55:27.609Z,8.89
2023-04-22T04:57:57.592Z,8.99
2023-04-22T05:00:26.804Z,9.11
2023-04-22T05:02:56.010Z,9.23
2023-04-22T05:05:26.594Z,9.38
2023-04-22T05:07:55.445Z,9.49
2023-04-22T05:10:25.205Z,9.57
2023-04-22T05:12:54.613Z,9.71
2023-04-22T05:15:26.505Z,9.82
2023-04-22T05:17:55.829Z,9.99
2023-04-22T05:20:26.530Z,10.11
2023-04-22T05:22:55.618Z,10.26
2023-04-22T05:25:24.638Z,10.38
2023-04-22T05:28:02.174Z,10.54
2023-04-22T05:30:36.994Z,10.70
2023-04-22T05:33:05.792Z,10.88
2023-04-22T05:35:36.774Z,11.07
2023-04-22T05:38:05.607Z,11.27
2023-04-22T05:40:35.521Z,11.50
2023-04-22T05:43:06.441Z,11.73
2023-04-22T05:45:36.262Z,11.98
2023-04-22T05:48:07.765Z,12.28
2023-04-22T05:50:44.269Z,12.52
2023-04-22T05:53:12.978Z,12.79
2023-04-22T05:55:42.359Z,12.99
2023-04-22T05:58:11.713Z,13.18
2023-04-22T06:00:54.063Z,13.38
2023-04-22T06:03:48.199Z,13.62
2023-04-22T06:06:19.060Z,13.83
2023-04-22T06:08:49.228Z,14.06
2023-04-22T06:11:18.302Z,14.22
2023-04-22T06:13:47.044Z,14.44
2023-04-22T06:16:16.286Z,14.68
2023-04-22T06:18:45.043Z,14.93
2023-04-22T06:21:14.548Z,15.11
2023-04-22T06:23:45.131Z,15.27
2023-04-22T06:26:14.337Z,15.42
2023-04-22T06:28:43.103Z,15.57
2023-04-22T06:31:20.418Z,15.73
2023-04-22T06:33:49.947Z,15.70
2023-04-22T06:36:20.199Z,15.73
2023-04-22T06:38:56.557Z,15.81
2023-04-22T06:41:40.796Z,15.81
2023-04-22T06:44:25.409Z,15.96
2023-04-22T06:47:23.285Z,16.04
2023-04-22T06:50:08.789Z,16.14
2023-04-22T06:52:42.389Z,16.24
2023-04-22T06:55:13.674Z,16.39
2023-04-22T06:57:43.146Z,16.57
2023-04-22T07:00:13.627Z,16.76
2023-04-22T07:02:43.716Z,17.12
2023-04-22T07:05:12.960Z,17.61
2023-04-22T07:07:42.457Z,17.88
2023-04-22T07:10:18.822Z,17.89
2023-04-22T07:13:07.778Z,17.69
2023-04-22T07:15:36.558Z,17.65
2023-04-22T07:18:06.040Z,17.56
2023-04-22T07:20:34.715Z,17.91
2023-04-22T07:23:03.642Z,18.19
2023-04-22T07:25:33.738Z,18.32
2023-04-22T07:28:02.945Z,18.45
2023-04-22T07:30:31.733Z,18.64
2023-04-22T07:33:00.755Z,18.72
2023-04-22T07:35:29.919Z,18.76
2023-04-22T07:37:58.926Z,18.87
2023-04-22T07:40:27.646Z,19.05
2023-04-22T07:42:58.258Z,19.08
2023-04-22T07:45:27.035Z,19.11
2023-04-22T07:47:56.066Z,18.91
2023-04-22T07:50:24.995Z,19.08
2023-04-22T07:52:53.991Z,19.33
2023-04-22T07:55:22.648Z,19.49
2023-04-22T07:57:51.609Z,19.51
2023-04-22T08:00:21.896Z,19.59
2023-04-22T08:02:51.108Z,19.64
2023-04-22T08:05:20.097Z,19.75
2023-04-22T08:07:49.189Z,19.85
2023-04-22T08:10:18.057Z,19.89
2023-04-22T08:12:47.245Z,20.02
2023-04-22T08:15:16.098Z,20.13
2023-04-22T08:17:46.663Z,20.20
2023-04-22T08:20:16.446Z,20.25
2023-04-22T08:22:45.744Z,20.20
2023-04-22T08:25:14.541Z,20.24
2023-04-22T08:27:43.588Z,20.27
2023-04-22T08:30:13.013Z,20.30
2023-04-22T08:32:42.003Z,20.35
2023-04-22T08:35:12.287Z,20.37
2023-04-22T08:37:42.188Z,20.43
2023-04-22T08:40:11.685Z,20.51
2023-04-22T08:42:41.754Z,20.55
2023-04-22T08:45:12.081Z,20.66
2023-04-22T08:47:42.507Z,20.88
2023-04-22T08:50:13.200Z,21.19
2023-04-22T08:52:43.837Z,21.27
2023-04-22T08:55:12.519Z,21.29
2023-04-22T08:57:42.753Z,21.36
2023-04-22T09:00:13.410Z,21.30
2023-04-22T09:02:45.950Z,21.20
2023-04-22T09:05:17.080Z,21.18
2023-04-22T09:07:46.854Z,21.29
2023-04-22T09:10:16.071Z,21.36
2023-04-22T09:12:45.079Z,21.45
2023-04-22T09:15:14.063Z,21.67
2023-04-22T09:17:43.671Z,22.01
2023-04-22T09:20:14.604Z,22.54
2023-04-22T09:22:47.405Z,23.19
2023-04-22T09:25:25.358Z,23.52
2023-04-22T09:27:55.942Z,23.71
2023-04-22T09:30:27.062Z,24.43
2023-04-22T09:32:58.975Z,24.94
2023-04-22T09:35:31.112Z,25.62
2023-04-22T09:38:04.416Z,26.13
2023-04-22T09:40:34.310Z,26.35
2023-04-22T09:43:05.642Z,26.81
2023-04-22T09:45:36.926Z,26.98
2023-04-22T09:48:10.768Z,26.99
2023-04-22T09:50:44.579Z,26.96
2023-04-22T09:53:17.855Z,26.61
2023-04-22T09:55:49.772Z,26.45
2023-04-22T09:58:21.507Z,26.44
2023-04-22T10:00:54.754Z,26.02
2023-04-22T10:03:24.931Z,25.97
2023-04-22T10:05:53.853Z,25.92
2023-04-22T10:08:24.322Z,25.91
2023-04-22T10:10:53.539Z,26.01
2023-04-22T10:13:22.693Z,26.52
2023-04-22T10:15:54.817Z,26.90
2023-04-22T10:18:28.984Z,26.95
2023-04-22T10:20:59.325Z,26.99
2023-04-22T10:23:34.663Z,27.53
2023-04-22T10:26:06.447Z,28.06
2023-04-22T10:28:35.621Z,28.45
2023-04-22T10:31:08.474Z,27.91
2023-04-22T10:33:39.518Z,27.35
2023-04-22T10:36:12.131Z,26.91
2023-04-22T10:39:03.834Z,26.56
2023-04-22T10:41:35.717Z,26.70
2023-04-22T10:44:08.940Z,26.91
2023-04-22T10:47:02.743Z,26.92
2023-04-22T10:49:33.066Z,26.56
2023-04-22T10:52:04.094Z,26.48
2023-04-22T10:55:02.520Z,26.56
2023-04-22T10:57:43.196Z,26.56
2023-04-22T11:00:45.653Z,26.79
2023-04-22T11:03:29.087Z,26.57
2023-04-22T11:06:18.698Z,26.41
2023-04-22T11:08:49.649Z,26.31
2023-04-22T11:11:20.770Z,26.28
2023-04-22T11:13:51.923Z,26.07
2023-04-22T11:16:24.158Z,26.20
2023-04-22T11:18:53.633Z,26.13
2023-04-22T11:21:23.906Z,26.13
2023-04-22T11:23:54.063Z,26.21
2023-04-22T11:26:37.721Z,26.35
2023-04-22T11:29:06.649Z,26.62
2023-04-22T11:31:37.371Z,26.99
2023-04-22T11:34:06.201Z,27.29
2023-04-22T11:36:35.720Z,27.35
2023-04-22T11:39:14.789Z,27.91
2023-04-22T11:41:45.373Z,28.40
2023-04-22T11:44:16.203Z,28.11
2023-04-22T11:46:45.924Z,28.16
2023-04-22T11:49:16.338Z,27.79
2023-04-22T11:51:55.867Z,27.09
2023-04-22T11:54:35.880Z,26.27
2023-04-22T11:57:11.952Z,25.28
2023-04-22T11:59:41.226Z,24.98
2023-04-22T12:02:11.513Z,24.62
2023-04-22T12:04:41.232Z,24.20
2023-04-22T12:07:10.614Z,23.95
2023-04-22T12:09:41.183Z,23.70
2023-04-22T12:12:11.919Z,23.48
2023-04-22T12:14:40.611Z,23.21
2023-04-22T12:17:12.243Z,23.08
2023-04-22T12:19:41.624Z,21.90
2023-04-22T12:22:10.853Z,22.40
2023-04-22T12:24:46.956Z,22.54
2023-04-22T12:27:17.260Z,22.58
2023-04-22T12:29:54.519Z,22.32
2023-04-22T12:32:25.114Z,22.54
2023-04-22T12:34:54.333Z,22.53
2023-04-22T12:37:23.240Z,22.51
2023-04-22T12:39:51.912Z,22.32
2023-04-22T12:42:22.241Z,22.18
2023-04-22T12:44:51.007Z,21.99
2023-04-22T12:47:20.350Z,22.12
2023-04-22T12:49:49.325Z,22.11
2023-04-22T12:52:18.316Z,22.02
2023-04-22T12:54:47.015Z,22.06
2023-04-22T12:57:16.058Z,21.99
2023-04-22T12:59:47.358Z,21.97
2023-04-22T13:02:16.349Z,22.02
2023-04-22T13:04:45.699Z,21.72
2023-04-22T13:07:14.739Z,21.99
2023-04-22T13:09:43.518Z,21.83
2023-04-22T13:12:12.627Z,22.03
2023-04-22T13:14:41.332Z,22.28
2023-04-22T13:17:11.699Z,22.36
2023-04-22T13:19:41.002Z,22.26
2023-04-22T13:22:10.153Z,22.21
2023-04-22T13:24:38.811Z,22.30
2023-04-22T13:27:07.854Z,22.48
2023-04-22T13:29:36.929Z,22.58
2023-04-22T13:32:07.178Z,22.51
2023-04-22T13:34:37.252Z,22.26
2023-04-22T13:37:06.252Z,22.32
2023-04-22T13:39:34.976Z,22.78
2023-04-22T13:42:04.850Z,23.36
2023-04-22T13:44:33.540Z,23.89
2023-04-22T13:47:03.023Z,23.97
2023-04-22T13:49:31.744Z,24.17
2023-04-22T13:52:02.284Z,24.01
2023-04-22T13:54:31.264Z,24.04
2023-04-22T13:57:00.647Z,24.02
2023-04-22T13:59:29.323Z,24.14
2023-04-22T14:01:58.309Z,24.12
2023-04-22T14:04:27.230Z,23.92
2023-04-22T14:06:56.526Z,23.72
2023-04-22T14:09:26.528Z,23.60
2023-04-22T14:11:55.482Z,23.70
2023-04-22T14:14:24.220Z,23.70
2023-04-22T14:16:53.299Z,23.56
2023-04-22T14:19:24.274Z,23.45
2023-04-22T14:21:53.320Z,23.29
2023-04-22T14:24:23.441Z,22.81
2023-04-22T14:26:53.875Z,22.34
2023-04-22T14:29:23.310Z,22.50
2023-04-22T14:31:52.443Z,22.71
2023-04-22T14:34:21.184Z,22.53
2023-04-22T14:36:50.248Z,22.95
2023-04-22T14:39:18.952Z,23.17
2023-04-22T14:41:48.086Z,23.25
2023-04-22T14:44:18.687Z,23.12
2023-04-22T14:46:47.686Z,22.86
2023-04-22T14:49:16.385Z,22.72
2023-04-22T14:51:45.509Z,22.62
2023-04-22T14:54:14.303Z,22.69
2023-04-22T14:56:43.317Z,22.59
2023-04-22T14:59:12.051Z,22.49
2023-04-22T15:01:43.235Z,22.57
2023-04-22T15:04:13.659Z,22.29
2023-04-22T15:06:43.880Z,22.49
2023-04-22T15:09:13.035Z,22.44
2023-04-22T15:11:42.076Z,22.40
2023-04-22T15:14:10.805Z,22.40
2023-04-22T15:16:41.416Z,22.45
2023-04-22T15:19:10.311Z,22.47
2023-04-22T15:21:39.955Z,22.48
2023-04-22T15:24:08.834Z,22.54
2023-04-22T15:26:39.758Z,22.56
2023-04-22T15:29:08.455Z,22.52
2023-04-22T15:31:37.501Z,22.59
2023-04-22T15:34:07.635Z,22.62
2023-04-22T15:36:36.686Z,22.64
2023-04-22T15:39:06.755Z,22.68
2023-04-22T15:41:35.748Z,22.71
2023-04-22T15:44:07.076Z,22.68
2023-04-22T15:46:38.086Z,22.63
2023-04-22T15:49:08.179Z,22.70
2023-04-22T15:51:37.040Z,22.63
2023-04-22T15:54:05.833Z,22.62
2023-04-22T15:56:34.761Z,22.62
2023-04-22T15:59:03.618Z,22.70
2023-04-22T16:01:32.821Z,22.68
2023-04-22T16:04:01.766Z,22.64
2023-04-22T16:06:32.481Z,22.69
2023-04-22T16:09:01.366Z,22.67
2023-04-22T16:11:30.511Z,22.53
2023-04-22T16:13:59.165Z,22.41
2023-04-22T16:16:28.378Z,22.38
2023-04-22T16:18:57.268Z,22.36
2023-04-22T16:21:26.331Z,22.44
2023-04-22T16:23:56.467Z,22.54
2023-04-22T16:26:25.489Z,22.51
2023-04-22T16:28:54.932Z,22.35
2023-04-22T16:31:23.983Z,22.16
2023-04-22T16:33:53.095Z,22.06
2023-04-22T16:36:22.511Z,21.93
2023-04-22T16:38:51.557Z,21.74
2023-04-22T16:41:21.921Z,21.65
2023-04-22T16:43:50.595Z,21.55
2023-04-22T16:46:19.739Z,21.45
2023-04-22T16:48:48.376Z,21.27
2023-04-22T16:51:17.443Z,21.17
2023-04-22T16:53:46.644Z,21.02
2023-04-22T16:56:15.583Z,20.92
2023-04-22T16:58:45.848Z,20.80
2023-04-22T17:01:14.837Z,20.67
2023-04-22T17:03:43.744Z,20.62
2023-04-22T17:06:13.049Z,20.49
2023-04-22T17:08:41.688Z,20.39
2023-04-22T17:11:10.771Z,20.27
2023-04-22T17:13:39.463Z,20.07
2023-04-22T17:16:11.045Z,20.01
2023-04-22T17:18:39.781Z,19.91
2023-04-22T17:21:08.755Z,19.77
2023-04-22T17:23:38.264Z,19.66
2023-04-22T17:26:07.322Z,19.54
2023-04-22T17:28:36.129Z,19.40
2023-04-22T17:31:05.128Z,19.26
2023-04-22T17:33:36.715Z,19.11
2023-04-22T17:36:06.307Z,18.99
2023-04-22T17:38:34.960Z,18.87
2023-04-22T17:41:04.248Z,18.77
2023-04-22T17:43:33.003Z,18.64
2023-04-22T17:46:02.036Z,18.50
2023-04-22T17:48:30.725Z,18.37
2023-04-22T17:51:05.149Z,18.27
2023-04-22T17:53:34.767Z,18.17
2023-04-22T17:56:03.742Z,18.06
2023-04-22T17:58:32.436Z,17.93
2023-04-22T18:01:01.404Z,17.80
2023-04-22T18:03:30.239Z,17.70
2023-04-22T18:06:01.414Z,17.56
2023-04-22T18:08:30.085Z,17.43
2023-04-22T18:10:59.705Z,17.33
2023-04-22T18:13:28.518Z,17.24
2023-04-22T18:15:57.566Z,17.14
2023-04-22T18:18:26.579Z,17.04
2023-04-22T18:20:56.011Z,16.96
2023-04-22T18:23:26.102Z,16.87
2023-04-22T18:25:55.861Z,16.76
2023-04-22T18:28:24.580Z,16.64
2023-04-22T18:30:54.029Z,16.53
2023-04-22T18:33:22.806Z,16.43
2023-04-22T18:35:51.723Z,16.39
2023-04-22T18:38:20.624Z,16.33
2023-04-22T18:40:50.988Z,16.24
2023-04-22T18:43:19.897Z,16.16
2023-04-22T18:45:48.815Z,16.05
2023-04-22T18:48:18.711Z,16.00
2023-04-22T18:50:47.658Z,15.93
2023-04-22T18:53:16.358Z,15.88
2023-04-22T18:55:45.551Z,15.80
2023-04-22T18:58:15.862Z,15.74
2023-04-22T19:00:44.872Z,15.67
2023-04-22T19:03:13.778Z,15.63
2023-04-22T19:05:43.393Z,15.56
2023-04-22T19:08:12.250Z,15.45
2023-04-22T19:10:41.403Z,15.38
2023-04-22T19:13:22.474Z,15.32
2023-04-22T19:16:00.000Z,15.22
2023-04-22T19:18:28.797Z,15.15
2023-04-22T19:20:57.923Z,15.06
2023-04-22T19:23:26.638Z,15.03
2023-04-22T19:25:55.708Z,14.99
2023-04-22T19:28:24.453Z,14.88
2023-04-22T19:30:53.624Z,14.81
2023-04-22T19:33:23.850Z,14.75
2023-04-22T19:35:52.881Z,14.71
2023-04-22T19:38:23.212Z,14.67
2023-04-22T19:40:52.308Z,14.63
2023-04-22T19:43:21.899Z,14.61
2023-04-22T19:45:50.834Z,14.52
2023-04-22T19:48:20.284Z,14.47
2023-04-22T19:50:51.103Z,14.44
2023-04-22T19:53:21.053Z,14.42
2023-04-22T19:55:50.453Z,14.35
2023-04-22T19:58:19.253Z,14.30
2023-04-22T20:00:49.415Z,14.23
2023-04-22T20:03:19.130Z,14.13
2023-04-22T20:05:52.460Z,14.05
2023-04-22T20:08:27.117Z,14.03
2023-04-22T20:10:57.006Z,14.03
2023-04-22T20:13:26.280Z,14.00
2023-04-22T20:15:55.708Z,13.98
2023-04-22T20:18:26.571Z,13.94
2023-04-22T20:20:58.586Z,13.89
2023-04-22T20:23:29.026Z,13.88
2023-04-22T20:25:58.796Z,13.81
2023-04-22T20:28:44.537Z,13.79
2023-04-22T20:31:14.476Z,13.73
2023-04-22T20:33:43.443Z,13.70
2023-04-22T20:36:16.205Z,13.65
2023-04-22T20:38:48.817Z,13.62
2023-04-22T20:41:20.177Z,13.57
2023-04-22T20:43:49.099Z,13.48
2023-04-22T20:46:19.220Z,13.44
2023-04-22T20:48:48.895Z,13.38
2023-04-22T20:51:19.594Z,13.29
2023-04-22T20:53:48.466Z,13.18
2023-04-22T20:56:17.594Z,13.10
2023-04-22T20:58:46.342Z,13.06
2023-04-22T21:01:16.624Z,12.99
2023-04-22T21:03:52.828Z,12.97
2023-04-22T21:06:25.220Z,12.88
2023-04-22T21:08:56.077Z,12.83
2023-04-22T21:11:26.134Z,12.82
2023-04-22T21:13:55.529Z,12.77
2023-04-22T21:16:29.735Z,12.75
2023-04-22T21:19:01.683Z,12.75
2023-04-22T21:21:34.856Z,12.67
2023-04-22T21:24:05.356Z,12.63
2023-04-22T21:26:36.703Z,12.61
2023-04-22T21:29:06.247Z,12.57
2023-04-22T21:31:35.316Z,12.54
2023-04-22T21:34:06.553Z,12.54
2023-04-22T21:36:36.917Z,12.53
2023-04-22T21:39:05.788Z,12.50
2023-04-22T21:41:34.745Z,12.46
2023-04-22T21:44:03.476Z,12.44
2023-04-22T21:46:32.432Z,12.44
2023-04-22T21:49:01.097Z,12.41
2023-04-22T21:51:30.088Z,12.37
2023-04-22T21:54:00.227Z,12.34
2023-04-22T21:56:31.342Z,12.30
2023-04-22T21:59:00.112Z,12.15
2023-04-22T22:01:29.089Z,12.14
2023-04-22T22:03:58.053Z,12.12
2023-04-22T22:06:27.173Z,12.03
2023-04-22T22:08:55.940Z,12.02
2023-04-22T22:11:30.999Z,12.00
2023-04-22T22:14:00.591Z,12.03
2023-04-22T22:16:29.731Z,12.01
2023-04-22T22:18:58.897Z,11.98
2023-04-22T22:21:27.815Z,11.90
2023-04-22T22:23:57.696Z,11.91
2023-04-22T22:26:29.202Z,11.94
2023-04-22T22:28:57.846Z,11.93
2023-04-22T22:31:26.905Z,11.90
2023-04-22T22:33:55.588Z,11.86
2023-04-22T22:36:25.437Z,11.86
2023-04-22T22:38:54.076Z,11.83
2023-04-22T22:41:23.021Z,11.79
2023-04-22T22:43:53.063Z,11.77
2023-04-22T22:46:22.439Z,11.75
2023-04-22T22:48:51.278Z,11.70
2023-04-22T22:51:21.183Z,11.64
2023-04-22T22:53:49.853Z,11.59
2023-04-22T22:56:21.007Z,11.56
2023-04-22T22:58:49.696Z,11.54
2023-04-22T23:01:20.187Z,11.53
2023-04-22T23:03:49.203Z,11.51
2023-04-22T23:06:18.544Z,11.51
2023-04-22T23:08:47.230Z,11.51
2023-04-22T23:11:16.158Z,11.55
2023-04-22T23:13:44.875Z,11.55
2023-04-22T23:16:14.018Z,11.54
2023-04-22T23:18:45.616Z,11.53
2023-04-22T23:21:16.085Z,11.42
2023-04-22T23:23:45.966Z,11.37
2023-04-22T23:26:15.489Z,11.35
2023-04-22T23:28:44.991Z,11.31
2023-04-22T23:31:19.835Z,11.30
2023-04-22T23:33:51.847Z,11.24
2023-04-22T23:36:23.951Z,11.18
2023-04-22T23:38:52.707Z,11.13
2023-04-22T23:41:21.733Z,11.10
2023-04-22T23:43:50.480Z,11.05
2023-04-22T23:46:19.655Z,10.99
2023-04-22T23:48:49.769Z,10.96
2023-04-22T23:51:18.741Z,10.88
2023-04-22T23:53:47.754Z,10.80
2023-04-22T23:56:21.118Z,10.76
2023-04-22T23:58:50.997Z,10.77
